Time;durP1;ratioP1;P1;durP2;ratioP2;P2;SDS_P1;SDS_P2;PMS_P1;PMS_P2;Temp;Humidity;BMP_temperature;BMP_pressure;BME280_temperature;BME280_humidity;BME280_pressure;Samples;Min_cycle;Max_cycle;Signal;HPM_P1;HPM_P2
2022/01/19 00:01:14;;;;;;;21.23;11.05;;;-0.20;99.90;;;;;;5073390;28;20020;-84
2022/01/19 00:03:40;;;;;;;22.38;11.18;;;-0.20;99.90;;;;;;5076964;28;20031;-84
2022/01/19 00:06:05;;;;;;;20.73;10.63;;;-0.30;99.90;;;;;;5058776;28;20028;-84
2022/01/19 00:08:31;;;;;;;20.63;10.00;;;-0.30;99.90;;;;;;5095885;28;20092;-84
2022/01/19 00:10:57;;;;;;;19.52;9.98;;;-0.40;99.90;;;;;;5096947;28;20032;-84
2022/01/19 00:13:24;;;;;;;20.88;9.95;;;-0.40;99.90;;;;;;5079012;28;20032;-84
2022/01/19 00:15:51;;;;;;;22.02;10.50;;;-0.40;99.90;;;;;;5096492;28;20108;-84
2022/01/19 00:18:19;;;;;;;20.35;8.45;;;-0.40;99.90;;;;;;5078330;28;20029;-85
2022/01/19 00:20:46;;;;;;;18.52;9.77;;;-0.40;99.90;;;;;;5096686;28;20020;-84
2022/01/19 00:23:15;;;;;;;14.95;7.43;;;-0.40;99.90;;;;;;5077693;28;20546;-84
2022/01/19 00:25:41;;;;;;;15.50;7.35;;;-0.40;99.90;;;;;;5075429;28;20028;-84
2022/01/19 00:28:07;;;;;;;15.82;7.93;;;-0.40;99.90;;;;;;5096695;28;20035;-84
2022/01/19 00:30:32;;;;;;;16.85;8.75;;;-0.50;99.90;;;;;;5078303;28;20024;-84
2022/01/19 00:32:58;;;;;;;20.77;10.27;;;-0.50;99.90;;;;;;5096413;28;20024;-84
2022/01/19 00:35:24;;;;;;;25.23;11.32;;;-0.50;99.90;;;;;;5078580;28;20024;-84
2022/01/19 00:37:50;;;;;;;23.38;11.75;;;-0.60;99.90;;;;;;5075396;28;20024;-84
2022/01/19 00:40:16;;;;;;;24.45;11.80;;;-0.60;99.90;;;;;;5077667;28;20111;-85
2022/01/19 00:42:43;;;;;;;22.23;10.73;;;-0.60;99.90;;;;;;5063275;28;20397;-84
2022/01/19 00:45:09;;;;;;;21.27;11.10;;;-0.60;99.90;;;;;;5061727;28;20051;-84
2022/01/19 00:47:35;;;;;;;24.42;11.68;;;-0.60;99.90;;;;;;5078189;28;20024;-84
2022/01/19 00:50:01;;;;;;;23.10;11.73;;;-0.60;99.90;;;;;;5077470;28;20502;-84
2022/01/19 00:52:27;;;;;;;20.60;9.30;;;-0.60;99.90;;;;;;5077705;28;20105;-84
2022/01/19 00:54:53;;;;;;;15.98;7.03;;;-0.60;99.90;;;;;;5078189;28;20472;-84
2022/01/19 00:57:18;;;;;;;19.98;7.40;;;-0.60;99.90;;;;;;5077940;28;20028;-84
2022/01/19 00:59:44;;;;;;;18.48;7.70;;;-0.70;99.90;;;;;;5096108;28;20030;-84
2022/01/19 01:02:10;;;;;;;19.17;8.52;;;-0.80;99.90;;;;;;5076974;28;20020;-84
2022/01/19 01:04:36;;;;;;;22.17;9.30;;;-0.90;99.90;;;;;;5083373;28;20024;-84
2022/01/19 01:07:02;;;;;;;22.42;9.27;;;-0.90;99.90;;;;;;5085076;28;20024;-84
2022/01/19 01:09:28;;;;;;;21.98;9.70;;;-1.00;99.90;;;;;;5077987;28;20028;-84
2022/01/19 01:12:19;;;;;;;20.27;7.82;;;-1.00;99.90;;;;;;5077079;28;20468;-84
2022/01/19 01:20:12;;;;;;;20.90;8.63;;;-1.10;99.90;;;;;;5096379;28;20495;-83
2022/01/19 01:22:39;;;;;;;18.35;8.48;;;-1.10;99.90;;;;;;5062795;28;20435;-84
2022/01/19 01:25:06;;;;;;;16.17;7.28;;;-1.10;99.90;;;;;;5057256;28;20033;-84
2022/01/19 01:27:31;;;;;;;17.80;7.80;;;-1.10;99.90;;;;;;5072688;28;20115;-84
2022/01/19 01:29:57;;;;;;;18.50;7.50;;;-1.10;99.90;;;;;;5095244;28;20059;-84
2022/01/19 01:32:23;;;;;;;14.80;6.55;;;-1.10;99.90;;;;;;5077022;28;20036;-84
2022/01/19 01:34:51;;;;;;;13.80;6.57;;;-1.10;99.90;;;;;;5076621;28;20038;-84
2022/01/19 01:37:17;;;;;;;19.08;8.43;;;-1.00;99.90;;;;;;5095211;28;20020;-85
2022/01/19 01:39:43;;;;;;;20.83;9.02;;;-1.00;99.90;;;;;;5076792;28;20389;-84
2022/01/19 01:42:10;;;;;;;23.85;10.68;;;-1.00;99.90;;;;;;5076757;28;20053;-84
2022/01/19 01:44:42;;;;;;;18.63;9.07;;;-1.10;99.90;;;;;;5083013;28;20021;-84
2022/01/19 01:47:09;;;;;;;19.63;8.85;;;-1.10;99.90;;;;;;5056567;28;20020;-83
2022/01/19 01:54:52;;;;;;;23.58;8.82;;;-1.10;99.90;;;;;;5095695;28;20495;-84
2022/01/19 01:57:18;;;;;;;23.20;9.23;;;-1.10;99.90;;;;;;5083714;28;20107;-84
2022/01/19 01:59:43;;;;;;;18.65;8.02;;;-1.10;99.90;;;;;;5071098;28;20490;-84
2022/01/19 02:02:09;;;;;;;18.35;7.72;;;-1.10;99.90;;;;;;5076631;28;20027;-84
2022/01/19 02:04:40;;;;;;;17.92;8.45;;;-1.20;99.90;;;;;;5077267;28;20471;-84
2022/01/19 02:09:55;;;;;;;17.65;8.30;;;-1.20;99.90;;;;;;5095101;28;20411;-84
2022/01/19 02:23:37;;;;;;;14.00;6.53;;;-1.40;99.90;;;;;;5094840;28;20081;-83
2022/01/19 02:26:09;;;;;;;14.07;6.57;;;-1.50;99.90;;;;;;5075579;28;20403;-84
2022/01/19 02:41:58;;;;;;;13.82;7.07;;;-1.60;99.90;;;;;;5081996;28;20051;-84
2022/01/19 02:46:33;;;;;;;16.48;7.00;;;-1.50;99.90;;;;;;5063111;28;20503;-84
2022/01/19 02:49:45;;;;;;;14.85;7.40;;;-1.50;99.90;;;;;;5094511;28;20025;-84
2022/01/19 02:52:11;;;;;;;13.95;6.53;;;-1.50;99.90;;;;;;5081464;28;20472;-84
2022/01/19 02:54:38;;;;;;;15.90;6.65;;;-1.50;99.90;;;;;;5082695;28;20115;-84
2022/01/19 02:57:07;;;;;;;13.75;5.88;;;-1.60;99.90;;;;;;5082415;28;20028;-84
2022/01/19 03:10:32;;;;;;;14.00;6.47;;;-1.60;99.90;;;;;;5098622;28;20507;-84
2022/01/19 03:12:57;;;;;;;13.88;6.20;;;-1.60;99.90;;;;;;5082765;28;20085;-84
2022/01/19 03:15:23;;;;;;;17.63;6.70;;;-1.60;99.90;;;;;;5082685;28;20031;-84
2022/01/19 03:17:49;;;;;;;14.63;6.28;;;-1.60;99.90;;;;;;5082710;28;20024;-84
2022/01/19 03:20:15;;;;;;;16.42;6.93;;;-1.70;99.90;;;;;;5082843;28;20024;-84
2022/01/19 03:22:54;;;;;;;13.15;6.35;;;-1.70;99.90;;;;;;5082349;28;20020;-84
2022/01/19 03:25:20;;;;;;;13.00;5.90;;;-1.70;99.90;;;;;;5082854;28;20036;-84
2022/01/19 03:27:46;;;;;;;13.43;6.15;;;-1.70;99.90;;;;;;5082247;28;20028;-84
2022/01/19 03:30:12;;;;;;;12.90;5.93;;;-1.70;99.90;;;;;;5082439;28;20396;-84
2022/01/19 03:32:38;;;;;;;14.93;6.95;;;-1.70;99.90;;;;;;5082663;28;20111;-84
2022/01/19 03:35:04;;;;;;;15.52;6.20;;;-1.60;99.90;;;;;;5082436;28;20614;-84
2022/01/19 03:37:29;;;;;;;16.25;6.95;;;-1.60;99.90;;;;;;5080772;28;20069;-84
2022/01/19 03:39:55;;;;;;;16.48;6.72;;;-1.60;99.90;;;;;;5081118;28;20050;-83
2022/01/19 03:42:21;;;;;;;15.80;6.63;;;-1.70;99.90;;;;;;5082016;28;20032;-83
2022/01/19 03:44:47;;;;;;;15.13;6.65;;;-1.70;99.90;;;;;;5100314;28;20024;-83
2022/01/19 03:47:12;;;;;;;16.02;6.35;;;-1.70;99.90;;;;;;5082774;28;20107;-84
2022/01/19 03:49:38;;;;;;;14.15;6.18;;;-1.70;99.90;;;;;;5089993;28;20063;-84
2022/01/19 03:52:05;;;;;;;16.73;6.78;;;-1.70;99.90;;;;;;5076142;28;20060;-84
2022/01/19 03:54:34;;;;;;;14.02;6.40;;;-1.70;99.90;;;;;;5079180;28;20027;-84
2022/01/19 03:57:00;;;;;;;14.30;6.28;;;-1.70;99.90;;;;;;5078788;28;20099;-84
2022/01/19 03:59:26;;;;;;;14.02;6.10;;;-1.80;99.90;;;;;;5063805;28;20024;-84
2022/01/19 04:01:53;;;;;;;15.95;6.72;;;-1.80;99.90;;;;;;5076597;28;20099;-84
2022/01/19 04:09:19;;;;;;;14.02;6.45;;;-1.90;99.90;;;;;;5077057;28;20439;-84
2022/01/19 04:11:45;;;;;;;13.25;6.78;;;-1.90;99.90;;;;;;5069349;28;20028;-84
2022/01/19 04:14:24;;;;;;;14.18;6.18;;;-2.00;99.90;;;;;;5096996;28;20020;-84
2022/01/19 04:17:02;;;;;;;13.55;6.70;;;-2.00;99.90;;;;;;5096488;28;20069;-84
2022/01/19 04:19:42;;;;;;;12.85;6.10;;;-2.00;99.90;;;;;;5078169;28;20020;-84
2022/01/19 04:22:13;;;;;;;13.23;6.70;;;-2.00;99.90;;;;;;5080374;28;20499;-84
2022/01/19 04:24:40;;;;;;;12.82;6.07;;;-2.00;99.90;;;;;;5078449;28;20399;-84
2022/01/19 04:30:11;;;;;;;15.02;7.32;;;-2.00;99.90;;;;;;5096593;28;20024;-84
2022/01/19 04:35:08;;;;;;;15.13;6.63;;;-2.00;99.90;;;;;;5096675;28;20031;-85
2022/01/19 04:48:36;;;;;;;13.52;5.65;;;-2.10;99.90;;;;;;5097496;28;20081;-84
2022/01/19 05:07:37;;;;;;;10.63;4.68;;;-2.30;99.90;;;;;;5095910;28;20046;-85
2022/01/19 05:13:24;;;;;;;10.63;5.13;;;-2.30;99.90;;;;;;5078700;28;20031;-85
2022/01/19 05:15:34;;;;;;;10.55;4.93;;;-2.50;99.90;;;;;;5086836;28;20034;-85
2022/01/19 05:18:02;;;;;;;11.80;5.72;;;-2.50;99.90;;;;;;5079958;28;20024;-85
2022/01/19 05:20:28;;;;;;;15.55;7.32;;;-2.50;99.90;;;;;;5099306;28;20027;-85
2022/01/19 05:22:53;;;;;;;22.52;10.98;;;-2.60;99.90;;;;;;5080072;28;20016;-85
2022/01/19 05:25:19;;;;;;;21.65;10.20;;;-2.70;99.90;;;;;;5079421;28;20054;-85
2022/01/19 05:27:45;;;;;;;19.98;9.95;;;-2.80;99.90;;;;;;5080323;28;20047;-85
2022/01/19 05:30:11;;;;;;;25.45;12.02;;;-2.80;99.90;;;;;;5080313;28;20077;-85
2022/01/19 05:32:37;;;;;;;20.73;11.02;;;-2.90;99.90;;;;;;5078272;28;20035;-85
2022/01/19 05:35:03;;;;;;;21.90;10.57;;;-2.90;99.90;;;;;;5078404;28;20028;-85
2022/01/19 05:37:30;;;;;;;21.75;10.93;;;-2.80;99.90;;;;;;5096655;28;20031;-85
2022/01/19 05:39:55;;;;;;;22.95;11.40;;;-2.80;99.90;;;;;;5096665;28;20103;-85
2022/01/19 05:42:22;;;;;;;26.88;12.18;;;-2.80;99.90;;;;;;5078650;28;20436;-84
2022/01/19 05:44:48;;;;;;;22.38;10.63;;;-2.80;99.90;;;;;;5078504;28;20107;-84
2022/01/19 05:47:15;;;;;;;17.85;8.68;;;-2.80;99.90;;;;;;5095852;28;20058;-84
2022/01/19 05:49:44;;;;;;;14.57;7.38;;;-2.80;99.90;;;;;;5096500;28;20032;-84
2022/01/19 05:52:10;;;;;;;12.50;6.13;;;-2.80;99.90;;;;;;5078120;28;20026;-84
2022/01/19 05:54:36;;;;;;;13.40;5.78;;;-2.90;99.90;;;;;;5096065;28;20020;-84
2022/01/19 05:57:03;;;;;;;13.57;6.18;;;-2.90;99.90;;;;;;5077313;28;20024;-84
2022/01/19 05:59:29;;;;;;;9.85;5.18;;;-2.90;99.90;;;;;;5095700;28;20024;-84
2022/01/19 06:01:55;;;;;;;10.75;4.97;;;-3.00;99.90;;;;;;5078072;28;20468;-84
2022/01/19 06:04:22;;;;;;;11.50;5.43;;;-3.00;99.90;;;;;;5096314;28;20063;-84
2022/01/19 06:06:50;;;;;;;11.88;5.32;;;-3.00;99.90;;;;;;5095930;28;20073;-84
2022/01/19 06:09:34;;;;;;;14.07;6.63;;;-3.00;99.90;;;;;;5095219;28;20021;-84
2022/01/19 06:12:05;;;;;;;11.77;6.25;;;-3.00;99.90;;;;;;5095502;28;20024;-84
2022/01/19 06:14:32;;;;;;;13.95;6.97;;;-3.10;99.90;;;;;;5078294;28;20034;-85
2022/01/19 06:16:58;;;;;;;16.42;7.30;;;-3.20;99.90;;;;;;5078196;28;20029;-85
2022/01/19 06:19:24;;;;;;;14.25;7.10;;;-3.30;99.90;;;;;;5077879;28;20020;-85
2022/01/19 06:21:50;;;;;;;13.75;6.47;;;-3.40;99.90;;;;;;5079222;28;20024;-85
2022/01/19 06:24:16;;;;;;;12.60;6.70;;;-3.40;99.90;;;;;;5078617;28;20058;-85
2022/01/19 06:26:42;;;;;;;11.48;6.22;;;-3.40;99.90;;;;;;5097226;28;20027;-85
2022/01/19 06:29:07;;;;;;;11.60;5.97;;;-3.40;99.90;;;;;;5096417;28;20369;-85
2022/01/19 06:31:33;;;;;;;11.45;6.75;;;-3.40;99.90;;;;;;5096739;28;20028;-85
2022/01/19 06:33:59;;;;;;;12.23;6.22;;;-3.40;99.90;;;;;;5097078;28;20516;-85
2022/01/19 06:36:24;;;;;;;12.48;6.53;;;-3.50;99.90;;;;;;5078165;28;20476;-85
2022/01/19 06:38:50;;;;;;;15.43;8.20;;;-3.70;99.90;;;;;;5078628;28;20388;-85
2022/01/19 06:41:16;;;;;;;16.83;8.55;;;-3.80;99.90;;;;;;5096411;28;20051;-85
2022/01/19 06:43:42;;;;;;;15.10;7.30;;;-3.80;99.90;;;;;;5095720;28;20027;-85
2022/01/19 06:46:07;;;;;;;15.07;7.22;;;-3.90;99.90;;;;;;5077914;28;20032;-85
2022/01/19 06:48:33;;;;;;;13.20;6.63;;;-3.90;99.90;;;;;;5077769;28;20031;-85
2022/01/19 06:50:59;;;;;;;12.63;6.90;;;-3.90;99.90;;;;;;5096033;28;20059;-84
2022/01/19 06:53:24;;;;;;;16.42;7.07;;;-3.80;99.90;;;;;;5095460;28;20032;-85
2022/01/19 06:55:50;;;;;;;14.93;8.00;;;-3.80;99.90;;;;;;5097239;28;20031;-85
2022/01/19 06:58:16;;;;;;;14.25;7.55;;;-3.80;99.90;;;;;;5097000;28;20020;-85
2022/01/19 07:00:42;;;;;;;17.98;9.00;;;-3.90;99.90;;;;;;5078618;28;20060;-85
2022/01/19 07:03:09;;;;;;;16.83;9.10;;;-3.90;99.90;;;;;;5097158;28;20020;-85
2022/01/19 07:05:34;;;;;;;16.30;8.35;;;-3.90;99.90;;;;;;5096818;28;20472;-85
2022/01/19 07:08:00;;;;;;;17.45;8.10;;;-3.90;99.90;;;;;;5078918;28;20074;-84
2022/01/19 07:10:31;;;;;;;15.57;8.10;;;-3.90;99.90;;;;;;5079412;28;20043;-85
2022/01/19 07:12:58;;;;;;;14.63;7.72;;;-3.90;99.90;;;;;;5079166;28;20035;-84
2022/01/19 07:15:24;;;;;;;14.65;6.82;;;-3.90;99.90;;;;;;5079379;28;20059;-85
2022/01/19 07:17:49;;;;;;;14.55;7.75;;;-4.00;99.90;;;;;;5079063;28;20017;-85
2022/01/19 07:20:15;;;;;;;14.98;6.95;;;-4.00;99.90;;;;;;5097744;28;20095;-84
2022/01/19 07:22:41;;;;;;;13.18;6.47;;;-4.00;99.90;;;;;;5080131;28;20020;-84
2022/01/19 07:25:07;;;;;;;12.90;6.40;;;-4.00;99.90;;;;;;5079489;28;20082;-85
2022/01/19 07:27:33;;;;;;;15.50;7.13;;;-4.10;99.90;;;;;;5099985;28;20020;-85
2022/01/19 07:29:58;;;;;;;13.80;6.55;;;-4.10;99.90;;;;;;5101305;28;20103;-85
2022/01/19 07:32:29;;;;;;;12.57;7.32;;;-4.10;99.90;;;;;;5101300;28;20020;-84
2022/01/19 07:34:54;;;;;;;12.90;7.72;;;-4.20;99.90;;;;;;5101251;28;20020;-84
2022/01/19 07:37:20;;;;;;;13.00;7.38;;;-4.10;99.90;;;;;;5100689;28;20487;-85
2022/01/19 07:39:46;;;;;;;11.88;6.80;;;-4.10;99.90;;;;;;5082849;28;20032;-84
2022/01/19 07:42:11;;;;;;;10.57;5.47;;;-4.10;99.90;;;;;;5100805;28;20047;-84
2022/01/19 07:44:39;;;;;;;11.20;5.65;;;-4.10;99.90;;;;;;5082621;28;20065;-84
2022/01/19 07:47:06;;;;;;;12.25;5.93;;;-4.00;99.90;;;;;;5100164;28;20024;-84
2022/01/19 07:49:31;;;;;;;11.10;5.68;;;-4.00;99.90;;;;;;5100254;28;20031;-84
2022/01/19 07:51:57;;;;;;;12.25;6.30;;;-3.90;99.90;;;;;;5082399;28;20032;-84
2022/01/19 07:54:23;;;;;;;14.48;7.18;;;-3.90;99.90;;;;;;5098925;28;20074;-84
2022/01/19 07:56:49;;;;;;;15.07;7.05;;;-3.80;99.90;;;;;;5097462;28;20107;-84
2022/01/19 07:59:16;;;;;;;18.88;8.80;;;-3.80;99.90;;;;;;5097211;28;20108;-84
2022/01/19 08:01:42;;;;;;;44.42;18.83;;;-3.70;99.90;;;;;;5079373;28;20021;-84
2022/01/19 08:04:08;;;;;;;27.25;12.95;;;-3.70;99.90;;;;;;5079142;28;20442;-84
2022/01/19 08:06:33;;;;;;;17.88;9.13;;;-3.70;99.90;;;;;;5097528;28;20426;-84
2022/01/19 08:08:59;;;;;;;15.55;7.75;;;-3.70;99.90;;;;;;5079320;28;20024;-84
2022/01/19 08:11:25;;;;;;;10.90;5.82;;;-3.60;99.90;;;;;;5079066;28;20024;-84
2022/01/19 08:13:51;;;;;;;12.65;5.53;;;-3.70;99.90;;;;;;5079062;28;20476;-84
2022/01/19 08:16:17;;;;;;;12.05;5.80;;;-3.70;99.90;;;;;;5079197;28;20492;-83
2022/01/19 08:18:43;;;;;;;12.05;4.82;;;-3.70;99.90;;;;;;5079148;28;20024;-84
2022/01/19 08:21:09;;;;;;;12.00;5.95;;;-3.70;99.90;;;;;;5097686;28;20574;-84
2022/01/19 08:23:34;;;;;;;11.68;6.55;;;-3.70;99.90;;;;;;5097487;28;20062;-83
2022/01/19 08:26:00;;;;;;;11.13;6.03;;;-3.60;99.90;;;;;;5079009;28;20032;-83
2022/01/19 08:28:26;;;;;;;17.05;7.57;;;-3.50;99.90;;;;;;5097258;28;20020;-84
2022/01/19 08:30:51;;;;;;;10.02;6.15;;;-3.50;99.90;;;;;;5097603;28;20434;-83
2022/01/19 08:33:17;;;;;;;13.05;6.82;;;-3.40;99.90;;;;;;5097354;28;20032;-83
2022/01/19 08:35:43;;;;;;;17.42;8.40;;;-3.30;99.90;;;;;;5078894;28;20373;-83
2022/01/19 08:38:08;;;;;;;13.80;7.10;;;-3.30;99.90;;;;;;5078604;28;20050;-83
2022/01/19 08:40:36;;;;;;;14.98;5.95;;;-3.30;99.90;;;;;;5097434;28;20070;-83
2022/01/19 08:43:03;;;;;;;12.38;5.82;;;-3.20;99.90;;;;;;5097197;28;20077;-83
2022/01/19 08:45:29;;;;;;;11.88;5.90;;;-3.20;99.90;;;;;;5096214;28;20039;-83
2022/01/19 08:47:55;;;;;;;14.63;6.03;;;-3.20;99.90;;;;;;5096025;28;20468;-83
2022/01/19 08:50:20;;;;;;;18.17;8.38;;;-3.20;99.90;;;;;;5077650;28;20031;-83
2022/01/19 08:52:46;;;;;;;13.02;6.85;;;-3.10;99.90;;;;;;5077752;28;20066;-83
2022/01/19 08:55:13;;;;;;;13.25;6.38;;;-3.00;99.90;;;;;;5078510;28;20028;-83
2022/01/19 08:57:39;;;;;;;12.20;5.80;;;-3.00;99.90;;;;;;5096704;28;20070;-83
2022/01/19 09:00:08;;;;;;;12.90;5.97;;;-2.90;99.90;;;;;;5097232;28;20418;-83
2022/01/19 09:02:34;;;;;;;27.25;13.70;;;-2.90;99.90;;;;;;5096836;28;20032;-83
2022/01/19 09:05:00;;;;;;;11.75;6.15;;;-2.80;99.90;;;;;;5096433;28;20028;-83
2022/01/19 09:07:26;;;;;;;12.38;6.07;;;-2.70;99.90;;;;;;5096606;28;20024;-82
2022/01/19 09:09:52;;;;;;;14.20;6.40;;;-2.70;99.90;;;;;;5096642;28;20024;-82
2022/01/19 09:12:17;;;;;;;11.98;6.25;;;-2.70;99.90;;;;;;5096682;28;20023;-83
2022/01/19 09:14:43;;;;;;;15.38;5.90;;;-2.60;99.90;;;;;;5096417;28;20042;-83
2022/01/19 09:17:09;;;;;;;14.55;5.82;;;-2.60;99.90;;;;;;5078170;28;20047;-83
2022/01/19 09:19:39;;;;;;;11.88;6.22;;;-2.60;99.90;;;;;;5096207;28;20021;-82
2022/01/19 09:22:06;;;;;;;12.85;6.38;;;-2.60;99.90;;;;;;5095800;28;20472;-82
2022/01/19 09:24:42;;;;;;;20.02;6.85;;;-2.50;99.90;;;;;;5095749;28;20481;-82
2022/01/19 09:27:08;;;;;;;12.70;5.60;;;-2.40;99.90;;;;;;5076867;28;20031;-82
2022/01/19 09:29:38;;;;;;;16.05;6.60;;;-2.40;99.90;;;;;;5076786;28;20027;-82
2022/01/19 09:32:07;;;;;;;12.80;6.33;;;-2.30;99.90;;;;;;5076793;28;20024;-83
2022/01/19 09:34:33;;;;;;;18.33;7.20;;;-2.20;99.90;;;;;;5076739;28;20024;-83
2022/01/19 09:36:59;;;;;;;14.52;6.60;;;-2.20;99.90;;;;;;5094563;28;20024;-83
2022/01/19 09:39:26;;;;;;;16.15;7.28;;;-2.10;99.90;;;;;;5094933;28;20384;-83
2022/01/19 09:41:54;;;;;;;15.40;7.05;;;-2.00;99.90;;;;;;5094656;28;20020;-83
2022/01/19 09:44:22;;;;;;;14.60;7.35;;;-1.90;99.90;;;;;;5094658;28;20453;-83
2022/01/19 09:46:48;;;;;;;16.55;7.68;;;-1.80;99.90;;;;;;5076499;28;20070;-83
2022/01/19 09:49:17;;;;;;;19.13;7.75;;;-1.80;99.90;;;;;;5075522;28;20091;-83
2022/01/19 09:51:45;;;;;;;17.88;7.70;;;-1.70;99.90;;;;;;5094531;28;20038;-83
2022/01/19 09:54:18;;;;;;;15.98;6.93;;;-1.70;99.90;;;;;;5076253;28;20062;-83
2022/01/19 09:56:45;;;;;;;14.57;6.13;;;-1.60;99.90;;;;;;5076479;28;20020;-83
2022/01/19 09:59:13;;;;;;;16.95;7.60;;;-1.50;99.90;;;;;;5076601;28;20455;-83
2022/01/19 10:02:02;;;;;;;14.05;6.63;;;-1.40;99.90;;;;;;5094485;28;20072;-83
2022/01/19 10:04:30;;;;;;;14.32;5.95;;;-1.30;99.90;;;;;;5067058;28;20040;-83
2022/01/19 10:07:13;;;;;;;17.60;5.65;;;-1.30;99.90;;;;;;5094481;28;20051;-83
2022/01/19 10:10:02;;;;;;;12.18;5.03;;;-1.20;99.90;;;;;;5076188;28;20479;-83
2022/01/19 10:18:23;;;;;;;13.55;5.63;;;-0.80;99.90;;;;;;5094237;28;20165;-83
2022/01/19 10:21:03;;;;;;;19.45;6.88;;;-0.70;99.90;;;;;;5094117;28;20028;-83
2022/01/19 10:23:39;;;;;;;18.42;7.90;;;-0.60;99.90;;;;;;5093928;28;20027;-83
2022/01/19 10:26:10;;;;;;;27.42;9.77;;;-0.50;99.90;;;;;;5094177;28;20026;-83
2022/01/19 10:28:57;;;;;;;17.70;8.88;;;-0.50;99.90;;;;;;5093866;28;20039;-83
2022/01/19 10:31:24;;;;;;;18.38;8.55;;;-0.50;99.90;;;;;;5075880;28;20443;-83
2022/01/19 10:34:12;;;;;;;15.55;8.10;;;-0.40;99.90;;;;;;5094172;28;20020;-83
2022/01/19 10:36:56;;;;;;;19.83;7.22;;;-0.40;99.90;;;;;;5075634;28;20020;-83
2022/01/19 10:39:24;;;;;;;20.15;7.50;;;-0.30;99.90;;;;;;5075610;28;20051;-83
2022/01/19 10:42:02;;;;;;;15.10;7.35;;;-0.30;99.90;;;;;;5093875;28;20016;-83
2022/01/19 10:44:36;;;;;;;11.05;6.80;;;-0.30;99.90;;;;;;5076572;28;20047;-82
2022/01/19 10:47:02;;;;;;;13.18;6.60;;;-0.20;99.90;;;;;;5093612;28;20024;-82
2022/01/19 10:49:28;;;;;;;11.63;5.97;;;-0.20;99.90;;;;;;5075760;28;20391;-83
2022/01/19 10:51:58;;;;;;;9.63;5.18;;;-0.10;99.90;;;;;;5075757;28;20114;-82
2022/01/19 10:54:30;;;;;;;14.57;7.10;;;0.00;99.90;;;;;;5073704;28;20113;-82
2022/01/19 10:57:01;;;;;;;15.85;6.45;;;0.10;99.90;;;;;;5073449;28;20289;-82
2022/01/19 10:59:29;;;;;;;14.02;5.85;;;0.10;99.90;;;;;;5073460;28;20025;-82
2022/01/19 11:01:58;;;;;;;17.30;7.43;;;0.20;99.90;;;;;;5076804;28;20061;-82
2022/01/19 11:04:26;;;;;;;16.25;6.85;;;0.20;99.90;;;;;;5077360;28;20037;-82
2022/01/19 11:07:03;;;;;;;12.73;6.47;;;0.30;99.90;;;;;;5059389;28;20031;-82
2022/01/19 11:09:30;;;;;;;10.80;5.50;;;0.40;99.90;;;;;;5077299;28;20028;-82
2022/01/19 11:12:05;;;;;;;12.60;5.55;;;0.50;99.90;;;;;;5059311;28;20107;-82
2022/01/19 11:14:31;;;;;;;10.73;5.40;;;0.50;99.90;;;;;;5077582;28;20021;-82
2022/01/19 11:16:57;;;;;;;8.48;4.78;;;0.60;99.90;;;;;;5059060;28;20031;-82
2022/01/19 11:19:23;;;;;;;7.07;4.15;;;0.60;99.90;;;;;;5077187;28;20380;-82
2022/01/19 11:22:05;;;;;;;8.50;4.20;;;0.70;99.90;;;;;;5077023;28;20024;-82
2022/01/19 11:24:35;;;;;;;8.63;4.40;;;0.70;99.90;;;;;;5077004;28;20016;-82
2022/01/19 11:27:02;;;;;;;8.50;5.25;;;0.80;99.90;;;;;;5077141;28;20101;-82
2022/01/19 11:29:30;;;;;;;9.55;4.90;;;0.80;99.90;;;;;;5059047;28;20063;-82
2022/01/19 11:31:57;;;;;;;8.77;4.28;;;0.90;99.90;;;;;;5076948;28;20077;-82
2022/01/19 11:34:46;;;;;;;7.07;4.10;;;0.90;99.90;;;;;;5077243;28;20043;-82
2022/01/19 11:37:12;;;;;;;6.85;4.22;;;0.90;99.90;;;;;;5058818;28;20108;-82
2022/01/19 11:40:09;;;;;;;9.52;4.22;;;1.00;99.90;;;;;;5058742;28;20032;-82
2022/01/19 11:42:35;;;;;;;7.25;3.75;;;1.00;99.90;;;;;;5076688;28;20020;-82
2022/01/19 11:45:04;;;;;;;9.25;3.90;;;1.10;99.90;;;;;;5077547;28;20058;-82
2022/01/19 11:47:31;;;;;;;6.63;3.80;;;1.20;99.90;;;;;;5058803;28;20067;-82
2022/01/19 11:50:00;;;;;;;8.18;4.10;;;1.30;99.90;;;;;;5058569;28;20115;-82
2022/01/19 11:52:49;;;;;;;7.35;4.10;;;1.30;99.90;;;;;;5076436;28;20092;-83
2022/01/19 11:55:23;;;;;;;8.30;4.43;;;1.40;99.90;;;;;;5063876;28;20377;-82
2022/01/19 11:58:10;;;;;;;8.00;4.00;;;1.40;99.90;;;;;;5058559;28;20025;-82
2022/01/19 12:00:47;;;;;;;22.92;9.60;;;1.50;99.90;;;;;;5059076;28;20024;-83
2022/01/19 12:03:38;;;;;;;16.50;8.00;;;1.60;99.90;;;;;;5058578;28;20024;-82
2022/01/19 12:06:04;;;;;;;10.20;4.68;;;1.70;99.90;;;;;;5058283;28;20040;-82
2022/01/19 12:08:35;;;;;;;8.23;4.40;;;1.70;99.90;;;;;;5058190;28;20419;-82
2022/01/19 12:11:23;;;;;;;8.45;4.07;;;1.80;99.90;;;;;;5076198;28;20054;-82
2022/01/19 12:14:19;;;;;;;15.65;7.07;;;1.80;99.90;;;;;;5057210;28;20396;-82
2022/01/19 12:17:25;;;;;;;20.10;8.68;;;1.90;99.90;;;;;;5076001;28;20096;-82
2022/01/19 12:19:44;;;;;;;11.30;6.22;;;1.90;99.90;;;;;;5075050;28;20024;-82
2022/01/19 12:22:24;;;;;;;9.13;4.60;;;2.00;99.90;;;;;;5085164;28;20476;-82
2022/01/19 12:25:06;;;;;;;6.82;3.80;;;2.10;99.90;;;;;;5075914;28;20025;-82
2022/01/19 12:27:37;;;;;;;9.80;4.88;;;2.10;99.90;;;;;;5058189;28;20385;-82
2022/01/19 12:30:06;;;;;;;;;;;2.20;99.90;;;;;;5058990;28;20025;-81
2022/01/19 12:32:35;;;;;;;13.98;7.55;;;2.20;99.90;;;;;;5058330;28;20287;-82
2022/01/19 12:35:04;;;;;;;8.45;4.95;;;2.20;99.90;;;;;;5058309;28;20029;-81
2022/01/19 12:37:46;;;;;;;5.70;3.83;;;2.30;99.90;;;;;;5076342;28;20102;-84
2022/01/19 12:40:18;;;;;;;9.52;4.38;;;2.40;99.90;;;;;;5076190;28;20381;-81
2022/01/19 12:42:47;;;;;;;8.90;4.30;;;2.40;99.90;;;;;;5075715;28;20066;-81
2022/01/19 12:45:28;;;;;;;7.57;4.03;;;2.50;99.90;;;;;;5076748;28;20055;-81
2022/01/19 12:47:55;;;;;;;6.93;3.83;;;2.50;99.90;;;;;;5070969;28;20455;-81
2022/01/19 12:50:20;;;;;;;8.38;4.70;;;2.60;99.90;;;;;;5078388;28;20442;-81
2022/01/19 12:52:53;;;;;;;12.10;5.90;;;2.70;99.90;;;;;;5077131;28;20019;-82
2022/01/19 12:55:23;;;;;;;15.75;8.65;;;2.70;99.90;;;;;;5074581;28;20055;-81
2022/01/19 12:57:51;;;;;;;14.80;8.35;;;2.80;99.90;;;;;;5077976;28;20066;-81
2022/01/19 13:00:23;;;;;;;15.93;9.05;;;2.80;99.90;;;;;;5077786;28;20031;-81
2022/01/19 13:02:48;;;;;;;18.15;8.40;;;2.90;99.90;;;;;;5095823;28;20012;-81
2022/01/19 13:05:18;;;;;;;15.95;7.93;;;2.90;99.90;;;;;;5095962;28;20118;-82
2022/01/19 13:07:53;;;;;;;17.38;8.48;;;3.00;99.90;;;;;;5094147;28;20070;-82
2022/01/19 13:10:38;;;;;;;18.52;7.88;;;3.10;99.90;;;;;;5094558;28;20020;-82
2022/01/19 13:13:13;;;;;;;16.88;7.72;;;3.10;99.90;;;;;;5095733;28;20430;-81
2022/01/19 13:15:54;;;;;;;12.55;8.18;;;3.10;99.90;;;;;;5095520;28;20440;-81
2022/01/19 13:18:31;;;;;;;12.15;7.60;;;3.20;99.90;;;;;;5077019;28;20372;-82
2022/01/19 13:21:03;;;;;;;16.90;7.18;;;3.20;99.90;;;;;;5095526;28;20414;-82
2022/01/19 13:23:34;;;;;;;15.63;8.02;;;3.20;99.90;;;;;;5077785;28;20028;-81
2022/01/19 13:26:12;;;;;;;;;;;3.30;99.90;;;;;;5096735;28;20039;-82
2022/01/19 13:28:37;;;;;;;14.80;7.65;;;3.30;99.90;;;;;;5077148;28;20275;-81
2022/01/19 13:31:17;;;;;;;15.77;7.38;;;3.40;99.90;;;;;;5095434;28;20020;-81
2022/01/19 13:33:56;;;;;;;17.88;7.65;;;3.40;99.90;;;;;;5095017;28;20020;-82
2022/01/19 13:36:30;;;;;;;13.90;8.23;;;3.50;99.90;;;;;;5076792;28;20063;-82
2022/01/19 13:38:57;;;;;;;13.32;7.97;;;3.50;99.90;;;;;;5076849;28;20016;-82
2022/01/19 13:41:23;;;;;;;15.00;8.50;;;3.40;99.90;;;;;;5077066;28;20028;-82
2022/01/19 13:43:50;;;;;;;15.75;8.57;;;3.40;99.90;;;;;;5076984;28;20363;-81
2022/01/19 13:46:26;;;;;;;13.65;8.77;;;3.50;99.90;;;;;;5095265;28;20024;-81
2022/01/19 13:48:59;;;;;;;16.50;7.97;;;3.50;99.90;;;;;;5077617;28;20026;-81
2022/01/19 13:51:26;;;;;;;15.38;7.82;;;3.50;99.90;;;;;;5076858;28;20115;-81
2022/01/19 13:53:53;;;;;;;11.68;7.60;;;3.40;99.90;;;;;;5095045;28;20020;-82
2022/01/19 13:56:28;;;;;;;12.50;7.85;;;3.40;99.90;;;;;;5076791;28;20111;-82
2022/01/19 13:59:17;;;;;;;19.48;10.00;;;3.40;99.90;;;;;;5095004;28;20361;-82
2022/01/19 14:01:49;;;;;;;17.08;9.98;;;3.30;99.90;;;;;;5095268;28;20048;-82
2022/01/19 14:04:15;;;;;;;16.50;9.07;;;3.20;99.90;;;;;;5077155;28;20475;-82
2022/01/19 14:06:43;;;;;;;16.75;8.38;;;3.20;99.90;;;;;;5095326;28;20024;-82
2022/01/19 14:09:11;;;;;;;15.05;7.72;;;3.20;99.90;;;;;;5094231;28;20066;-82
2022/01/19 14:11:38;;;;;;;13.05;7.57;;;3.10;99.90;;;;;;5076276;28;20047;-82
2022/01/19 14:14:13;;;;;;;10.32;6.55;;;3.10;99.90;;;;;;5094547;28;20020;-82
2022/01/19 14:16:47;;;;;;;10.85;6.32;;;3.10;99.90;;;;;;5094824;28;20035;-82
2022/01/19 14:19:15;;;;;;;9.98;5.53;;;3.00;99.90;;;;;;5094563;28;20020;-82
2022/01/19 14:22:09;;;;;;;11.20;4.88;;;3.00;99.90;;;;;;5076122;28;20028;-82
2022/01/19 14:24:41;;;;;;;6.75;4.10;;;2.90;99.90;;;;;;5072682;28;20096;-82
2022/01/19 14:27:09;;;;;;;8.65;4.53;;;2.90;99.90;;;;;;5055893;28;20035;-82
2022/01/19 14:29:35;;;;;;;6.63;4.20;;;2.90;99.90;;;;;;5055957;28;20027;-82